createdAt,value
2023-04-04T00:00:50.494Z,23.9465
2023-04-04T00:01:51.582Z,24.0440
2023-04-04T00:02:52.759Z,24.1913
2023-04-04T00:03:54.109Z,24.2533
2023-04-04T00:04:54.853Z,24.0956
2023-04-04T00:05:55.969Z,23.9927
2023-04-04T00:06:57.047Z,23.9582
2023-04-04T00:07:58.151Z,23.8440
2023-04-04T00:08:59.218Z,23.7827
2023-04-04T00:10:00.342Z,23.7108
2023-04-04T00:11:01.482Z,23.6030
2023-04-04T00:12:02.513Z,23.6007
2023-04-04T00:13:03.619Z,23.7688
2023-04-04T00:14:04.703Z,23.8425
2023-04-04T00:15:05.863Z,23.8914
2023-04-04T00:16:06.956Z,23.7910
2023-04-04T00:17:07.979Z,23.8335
2023-04-04T00:18:09.087Z,24.0237
2023-04-04T00:19:10.141Z,24.1773
2023-04-04T00:20:11.259Z,24.2309
2023-04-04T00:21:12.363Z,24.3010
2023-04-04T00:22:13.433Z,24.3287
2023-04-04T00:23:14.537Z,24.1671
2023-04-04T00:24:15.625Z,24.1054
2023-04-04T00:25:16.704Z,24.0952
2023-04-04T00:26:17.832Z,23.9384
2023-04-04T00:27:18.922Z,23.8900
2023-04-04T00:28:19.997Z,23.9376
2023-04-04T00:29:21.084Z,23.9721
2023-04-04T00:30:22.211Z,24.0867
2023-04-04T00:31:23.685Z,24.0894
2023-04-04T00:32:24.405Z,24.0913
2023-04-04T00:33:25.503Z,24.1032
2023-04-04T00:34:26.566Z,24.1527
2023-04-04T00:35:27.659Z,24.0212
2023-04-04T00:36:28.785Z,23.8875
2023-04-04T00:37:29.842Z,23.9559
2023-04-04T00:38:30.949Z,24.0886
2023-04-04T00:39:32.028Z,24.2607
2023-04-04T00:40:33.133Z,24.3180
2023-04-04T00:41:34.242Z,24.3413
2023-04-04T00:42:35.344Z,24.3176
2023-04-04T00:43:36.432Z,24.3618
2023-04-04T00:44:37.526Z,24.2176
2023-04-04T00:45:38.618Z,24.1995
2023-04-04T00:46:39.762Z,24.0872
2023-04-04T00:47:40.854Z,24.1028
2023-04-04T00:48:41.914Z,24.2014
2023-04-04T00:49:42.993Z,24.2807
2023-04-04T00:50:44.103Z,24.1895
2023-04-04T00:51:45.194Z,24.1190
2023-04-04T00:52:46.324Z,24.1213
2023-04-04T00:53:47.354Z,24.2437
2023-04-04T00:54:48.472Z,24.2500
2023-04-04T00:55:49.558Z,24.2833
2023-04-04T00:56:50.685Z,24.3924
2023-04-04T00:57:51.743Z,24.3203
2023-04-04T00:58:52.908Z,24.2188
2023-04-04T00:59:53.938Z,24.2164
2023-04-04T01:00:55.100Z,23.9536
2023-04-04T01:01:56.206Z,23.5525
2023-04-04T01:02:57.277Z,23.7232
2023-04-04T01:03:58.354Z,23.8729
2023-04-04T01:04:59.443Z,23.9477
2023-04-04T01:06:00.524Z,24.0446
2023-04-04T01:07:01.651Z,24.0794
2023-04-04T01:08:02.726Z,24.0752
2023-04-04T01:09:03.839Z,24.1048
2023-04-04T01:10:04.947Z,24.0107
2023-04-04T01:11:06.014Z,23.8172
2023-04-04T01:12:07.156Z,23.5011
2023-04-04T01:13:08.237Z,23.4972
2023-04-04T01:14:09.310Z,23.4886
2023-04-04T01:15:10.396Z,23.5455
2023-04-04T01:16:11.545Z,23.6268
2023-04-04T01:17:12.699Z,23.7326
2023-04-04T01:18:13.692Z,23.7784
2023-04-04T01:19:14.772Z,23.5989
2023-04-04T01:20:15.977Z,23.6519
2023-04-04T01:21:16.975Z,23.6915
2023-04-04T01:22:18.111Z,23.8101
2023-04-04T01:23:19.163Z,23.8994
2023-04-04T01:24:20.273Z,23.9263
2023-04-04T01:25:21.351Z,24.0064
2023-04-04T01:26:22.462Z,24.1416
2023-04-04T01:27:23.710Z,24.1981
2023-04-04T01:28:24.659Z,24.0120
2023-04-04T01:29:25.755Z,23.8953
2023-04-04T01:30:26.861Z,23.9721
2023-04-04T01:31:27.982Z,24.0679
2023-04-04T01:32:29.098Z,23.9715
2023-04-04T01:33:30.151Z,23.7458
2023-04-04T01:34:31.248Z,23.3904
2023-04-04T01:35:32.382Z,23.3294
2023-04-04T01:36:33.449Z,23.4116
2023-04-04T01:37:34.547Z,23.4249
2023-04-04T01:38:35.635Z,23.4469
2023-04-04T01:39:36.726Z,23.4978
2023-04-04T01:40:38.026Z,23.4477
2023-04-04T01:41:39.045Z,23.5013
2023-04-04T01:42:40.558Z,23.5500
2023-04-04T01:43:41.116Z,23.6147
2023-04-04T01:44:42.217Z,23.5771
2023-04-04T01:45:43.324Z,23.6108
2023-04-04T01:46:44.409Z,23.6186
2023-04-04T01:47:45.591Z,23.4972
2023-04-04T01:48:46.606Z,23.4861
2023-04-04T01:49:47.689Z,23.4681
2023-04-04T01:50:48.802Z,23.3830
2023-04-04T01:51:49.880Z,23.4890
2023-04-04T01:52:51.075Z,23.5599
2023-04-04T01:53:52.144Z,23.4676
2023-04-04T01:54:53.251Z,23.4639
2023-04-04T01:55:54.342Z,23.4276
2023-04-04T01:56:55.448Z,23.4366
2023-04-04T01:57:56.553Z,23.4368
2023-04-04T01:58:57.704Z,23.3771
2023-04-04T01:59:58.734Z,23.3656
2023-04-04T02:00:59.831Z,23.3766
2023-04-04T02:02:00.927Z,23.4405
2023-04-04T02:03:02.128Z,23.4568
2023-04-04T02:04:03.135Z,23.3703
2023-04-04T02:05:04.226Z,23.2760
2023-04-04T02:06:05.297Z,23.3273
2023-04-04T02:07:06.434Z,23.3927
2023-04-04T02:08:07.502Z,23.2832
2023-04-04T02:09:08.628Z,23.2967
2023-04-04T02:10:09.689Z,23.1139
2023-04-04T02:11:10.790Z,23.2552
2023-04-04T02:12:11.906Z,23.2918
2023-04-04T02:13:13.044Z,23.3606
2023-04-04T02:14:14.114Z,23.1525
2023-04-04T02:15:15.193Z,23.1891
2023-04-04T02:16:16.308Z,23.1881
2023-04-04T02:17:17.380Z,23.2070
2023-04-04T02:18:18.500Z,23.2561
2023-04-04T02:19:19.571Z,23.1868
2023-04-04T02:20:20.653Z,23.1712
2023-04-04T02:21:21.769Z,23.1384
2023-04-04T02:22:22.850Z,23.0802
2023-04-04T02:23:23.986Z,23.0985
2023-04-04T02:24:25.060Z,23.0934
2023-04-04T02:25:26.163Z,23.1704
2023-04-04T02:26:27.245Z,23.0603
2023-04-04T02:27:28.364Z,23.1638
2023-04-04T02:28:29.471Z,23.2943
2023-04-04T02:29:30.588Z,23.2704
2023-04-04T02:30:31.639Z,23.2828
2023-04-04T02:31:32.803Z,23.3004
2023-04-04T02:32:33.841Z,23.3021
2023-04-04T02:33:34.963Z,23.2103
2023-04-04T02:34:36.039Z,23.0486
2023-04-04T02:35:37.196Z,22.8715
2023-04-04T02:36:38.248Z,22.8183
2023-04-04T02:37:39.340Z,22.9124
2023-04-04T02:38:40.439Z,23.0285
2023-04-04T02:39:41.528Z,23.1992
2023-04-04T02:40:42.887Z,23.2665
2023-04-04T02:41:43.730Z,23.2583
2023-04-04T02:42:44.838Z,23.2105
2023-04-04T02:43:45.940Z,23.1868
2023-04-04T02:44:47.002Z,23.1184
2023-04-04T02:45:48.123Z,23.0891
2023-04-04T02:46:49.234Z,23.0652
2023-04-04T02:47:50.348Z,23.1035
2023-04-04T02:48:51.411Z,23.1164
2023-04-04T02:49:52.502Z,23.1476
2023-04-04T02:50:53.586Z,23.2039
2023-04-04T02:51:54.692Z,23.2096
2023-04-04T02:52:55.778Z,23.3197
2023-04-04T02:53:56.921Z,23.3845
2023-04-04T02:54:57.968Z,23.3826
2023-04-04T02:55:59.086Z,23.5243
2023-04-04T02:57:00.163Z,23.6157
2023-04-04T02:58:01.273Z,23.6708
2023-04-04T02:59:02.414Z,23.6020
2023-04-04T03:00:03.476Z,23.4177
2023-04-04T03:01:04.586Z,23.4572
2023-04-04T03:02:05.731Z,23.4925
2023-04-04T03:03:06.853Z,23.4837
2023-04-04T03:04:07.956Z,23.3006
2023-04-04T03:05:08.960Z,23.1920
2023-04-04T03:06:10.072Z,23.0127
2023-04-04T03:07:11.155Z,22.8208
2023-04-04T03:08:12.264Z,22.6659
2023-04-04T03:09:13.368Z,22.7861
2023-04-04T03:10:14.468Z,22.9245
2023-04-04T03:11:15.553Z,23.0901
2023-04-04T03:12:16.668Z,23.1283
2023-04-04T03:13:17.750Z,23.1415
2023-04-04T03:14:18.937Z,23.0472
2023-04-04T03:15:19.949Z,22.9874
2023-04-04T03:16:21.055Z,23.0934
2023-04-04T03:17:22.139Z,23.2731
2023-04-04T03:18:23.254Z,23.3914
2023-04-04T03:19:24.378Z,23.5662
2023-04-04T03:20:25.461Z,23.5936
2023-04-04T03:21:26.526Z,23.6424
2023-04-04T03:22:27.661Z,23.5233
2023-04-04T03:23:28.739Z,23.4619
2023-04-04T03:24:29.884Z,23.4218
2023-04-04T03:25:30.939Z,23.5100
2023-04-04T03:26:32.058Z,23.4469
2023-04-04T03:27:33.131Z,23.2896
2023-04-04T03:28:34.246Z,23.0907
2023-04-04T03:29:35.385Z,22.6949
2023-04-04T03:30:36.455Z,22.5885
2023-04-04T03:31:37.570Z,22.5252
2023-04-04T03:32:38.704Z,22.4870
2023-04-04T03:33:39.762Z,22.5507
2023-04-04T03:34:40.879Z,22.7230
2023-04-04T03:35:41.984Z,22.9139
2023-04-04T03:36:43.077Z,23.0355
2023-04-04T03:37:44.135Z,23.3766
2023-04-04T03:38:45.235Z,23.5693
2023-04-04T03:39:46.346Z,23.7569
2023-04-04T03:40:47.438Z,23.9119
2023-04-04T03:41:48.524Z,24.0500
2023-04-04T03:42:49.657Z,24.0356
2023-04-04T03:43:50.719Z,23.8752
2023-04-04T03:44:51.866Z,23.7271
2023-04-04T03:45:52.969Z,23.7289
2023-04-04T03:46:54.038Z,23.7287
2023-04-04T03:47:55.156Z,23.6638
2023-04-04T03:48:56.235Z,23.5003
2023-04-04T03:49:57.355Z,23.3929
2023-04-04T03:50:58.432Z,23.3091
2023-04-04T03:51:59.548Z,23.2413
2023-04-04T03:53:00.674Z,23.2774
2023-04-04T03:54:01.725Z,23.5539
2023-04-04T03:55:02.862Z,23.7226
2023-04-04T03:56:03.923Z,23.6833
2023-04-04T03:57:05.032Z,23.5593
2023-04-04T03:58:06.118Z,23.7394
2023-04-04T03:59:07.289Z,23.8105
2023-04-04T04:00:08.353Z,23.7043
2023-04-04T04:01:09.494Z,23.7004
2023-04-04T04:02:10.546Z,23.6129
2023-04-04T04:03:11.834Z,23.7090
2023-04-04T04:04:12.758Z,23.6899
2023-04-04T04:05:13.875Z,23.5208
2023-04-04T04:06:14.928Z,23.3050
2023-04-04T04:07:16.061Z,23.2891
2023-04-04T04:08:17.138Z,23.2546
2023-04-04T04:09:18.258Z,22.9954
2023-04-04T04:10:19.388Z,23.0671
2023-04-04T04:11:20.476Z,23.1246
2023-04-04T04:12:21.551Z,23.2183
2023-04-04T04:13:22.669Z,23.3690
2023-04-04T04:14:23.764Z,23.3399
2023-04-04T04:15:24.922Z,23.4448
2023-04-04T04:16:26.047Z,23.3214
2023-04-04T04:17:27.076Z,23.1912
2023-04-04T04:18:28.196Z,23.1700
2023-04-04T04:19:29.269Z,23.1219
2023-04-04T04:20:30.366Z,23.1714
2023-04-04T04:21:31.468Z,23.0459
2023-04-04T04:22:32.551Z,22.9917
2023-04-04T04:23:33.660Z,23.0932
2023-04-04T04:24:34.736Z,23.0478
2023-04-04T04:25:35.865Z,23.0098
2023-04-04T04:26:36.937Z,23.0942
2023-04-04T04:27:38.051Z,23.1380
2023-04-04T04:28:39.675Z,23.0578
2023-04-04T04:29:40.248Z,23.0336
2023-04-04T04:30:41.570Z,23.1246
2023-04-04T04:31:42.482Z,23.3115
2023-04-04T04:32:43.569Z,23.2844
2023-04-04T04:33:44.663Z,23.2450
2023-04-04T04:34:45.748Z,23.3230
2023-04-04T04:35:46.884Z,23.3002
2023-04-04T04:36:47.955Z,23.3230
2023-04-04T04:37:49.076Z,23.3300
2023-04-04T04:38:50.153Z,23.3376
2023-04-04T04:39:51.266Z,23.2748
2023-04-04T04:40:52.365Z,23.1176
2023-04-04T04:41:53.467Z,23.1753
2023-04-04T04:42:54.553Z,23.3532
2023-04-04T04:43:55.672Z,23.4806
2023-04-04T04:44:56.753Z,23.4763
2023-04-04T04:45:57.881Z,23.4420
2023-04-04T04:46:58.988Z,23.3115
2023-04-04T04:48:00.119Z,23.4112
2023-04-04T04:49:01.202Z,23.3795
2023-04-04T04:50:02.265Z,23.2608
2023-04-04T04:51:03.784Z,23.3296
2023-04-04T04:52:04.459Z,23.2717
2023-04-04T04:53:05.553Z,23.3543
2023-04-04T04:54:06.667Z,23.4155
2023-04-04T04:55:07.745Z,23.4212
2023-04-04T04:56:08.885Z,23.4646
2023-04-04T04:57:10.744Z,23.3341
2023-04-04T04:58:12.541Z,23.2569
2023-04-04T04:59:12.153Z,23.0915
2023-04-04T05:00:13.247Z,23.0077
2023-04-04T05:01:14.371Z,23.0096
2023-04-04T05:02:15.470Z,23.2189
2023-04-04T05:03:16.549Z,23.1154
2023-04-04T05:04:17.663Z,23.1281
2023-04-04T05:05:18.723Z,23.0129
2023-04-04T05:06:20.293Z,23.1211
2023-04-04T05:07:20.919Z,23.3752
2023-04-04T05:08:22.023Z,23.2772
2023-04-04T05:09:23.116Z,23.3582
2023-04-04T05:10:24.216Z,23.5599
2023-04-04T05:11:25.319Z,23.4664
2023-04-04T05:12:26.412Z,23.4011
2023-04-04T05:13:27.487Z,23.3732
2023-04-04T05:14:28.603Z,23.2889
2023-04-04T05:15:29.692Z,23.2376
2023-04-04T05:16:30.867Z,23.2230
2023-04-04T05:17:31.898Z,23.1090
2023-04-04T05:18:32.974Z,23.0256
2023-04-04T05:19:34.124Z,22.9892
2023-04-04T05:20:35.182Z,23.0661
2023-04-04T05:21:36.294Z,23.0593
2023-04-04T05:22:37.374Z,23.0102
2023-04-04T05:23:43.295Z,22.8389
2023-04-04T05:24:39.559Z,22.8619
2023-04-04T05:25:40.665Z,23.0005
2023-04-04T05:26:41.778Z,22.7896
2023-04-04T05:27:42.845Z,22.6148
2023-04-04T05:28:43.959Z,22.7970
2023-04-04T05:29:45.032Z,22.9494
2023-04-04T05:30:46.165Z,22.9556
2023-04-04T05:31:47.322Z,22.9825
2023-04-04T05:32:48.368Z,22.9537
2023-04-04T05:33:49.445Z,22.9874
2023-04-04T05:34:50.550Z,22.8526
2023-04-04T05:35:51.742Z,22.8724
2023-04-04T05:36:52.747Z,22.8401
2023-04-04T05:37:53.841Z,22.8457
2023-04-04T05:38:54.913Z,22.8715
2023-04-04T05:39:56.032Z,22.8524
2023-04-04T05:40:57.112Z,22.7563
2023-04-04T05:41:58.261Z,22.7236
2023-04-04T05:42:59.303Z,22.7699
2023-04-04T05:44:00.458Z,22.8923
2023-04-04T05:45:01.525Z,22.9038
2023-04-04T05:46:02.674Z,23.0470
2023-04-04T05:47:03.718Z,23.0973
2023-04-04T05:48:05.819Z,23.2470
2023-04-04T05:49:05.907Z,23.2715
2023-04-04T05:50:07.009Z,23.1901
2023-04-04T05:51:08.275Z,23.1260
2023-04-04T05:52:09.218Z,23.0470
2023-04-04T05:53:10.373Z,22.9200
2023-04-04T05:54:11.489Z,22.8678
2023-04-04T05:55:12.563Z,22.8806
2023-04-04T05:56:13.657Z,22.9167
2023-04-04T05:57:14.787Z,22.8816
2023-04-04T05:58:15.874Z,22.9036
2023-04-04T05:59:16.980Z,22.7857
2023-04-04T06:00:18.062Z,22.7107
2023-04-04T06:01:19.143Z,22.7329
2023-04-04T06:02:20.308Z,22.7335
2023-04-04T06:03:22.232Z,22.7888
2023-04-04T06:04:22.451Z,22.7452
2023-04-04T06:05:23.542Z,22.5328
2023-04-04T06:06:24.708Z,22.6181
2023-04-04T06:07:25.774Z,22.6380
2023-04-04T06:08:26.877Z,22.7064
2023-04-04T06:09:27.938Z,22.7834
2023-04-04T06:10:29.060Z,22.8463
2023-04-04T06:11:30.162Z,22.9145
2023-04-04T06:12:31.280Z,23.0897
2023-04-04T06:13:32.342Z,23.0737
2023-04-04T06:14:33.453Z,23.0823
2023-04-04T06:15:34.544Z,23.1353
2023-04-04T06:16:35.710Z,23.1916
2023-04-04T06:17:36.803Z,23.2896
2023-04-04T06:18:37.839Z,23.3617
2023-04-04T06:19:39.732Z,23.3230
2023-04-04T06:20:40.245Z,23.4305
2023-04-04T06:21:41.119Z,23.4173
2023-04-04T06:22:42.323Z,23.4759
2023-04-04T06:23:43.331Z,23.6318
2023-04-04T06:24:44.433Z,23.7226
2023-04-04T06:25:45.522Z,23.6277
2023-04-04T06:26:46.629Z,23.6435
2023-04-04T06:27:47.728Z,23.5640
2023-04-04T06:28:48.918Z,23.3826
2023-04-04T06:29:49.922Z,23.3393
2023-04-04T06:30:51.027Z,23.5270
2023-04-04T06:31:52.178Z,23.7180
2023-04-04T06:32:53.295Z,23.8600
2023-04-04T06:33:54.324Z,23.7704
2023-04-04T06:34:55.430Z,23.4155
2023-04-04T06:35:56.518Z,23.3423
2023-04-04T06:36:57.622Z,23.5473
2023-04-04T06:37:58.720Z,23.6991
2023-04-04T06:38:59.824Z,23.8308
2023-04-04T06:40:00.905Z,23.8826
2023-04-04T06:41:02.006Z,23.8224
2023-04-04T06:42:03.081Z,23.8721
2023-04-04T06:43:04.236Z,23.9454
2023-04-04T06:44:05.284Z,23.8511
2023-04-04T06:45:06.406Z,23.8696
2023-04-04T06:46:07.484Z,23.8840
2023-04-04T06:47:08.594Z,23.7404
2023-04-04T06:48:09.718Z,23.8680
2023-04-04T06:49:10.797Z,23.9968
2023-04-04T06:50:11.888Z,24.0598
2023-04-04T06:51:12.988Z,24.1412
2023-04-04T06:52:14.064Z,24.2361
2023-04-04T06:53:15.210Z,24.1455
2023-04-04T06:54:16.258Z,23.8592
2023-04-04T06:55:17.369Z,23.7166
2023-04-04T06:56:18.450Z,23.6546
2023-04-04T06:57:19.577Z,23.6513
2023-04-04T06:58:20.679Z,23.3495
2023-04-04T06:59:21.817Z,23.4434
2023-04-04T07:00:22.851Z,23.4763
2023-04-04T07:01:23.953Z,23.4859
2023-04-04T07:02:25.061Z,23.5936
2023-04-04T07:03:26.189Z,23.5769
2023-04-04T07:04:27.254Z,23.5895
2023-04-04T07:05:28.346Z,23.5282
2023-04-04T07:06:29.448Z,23.4794
2023-04-04T07:07:30.554Z,23.5432
2023-04-04T07:08:35.597Z,23.7599
2023-04-04T07:09:32.800Z,23.9413
2023-04-04T07:10:33.838Z,23.9497
2023-04-04T07:11:34.950Z,24.0557
2023-04-04T07:12:36.025Z,24.0607
2023-04-04T07:13:37.172Z,24.0987
2023-04-04T07:14:38.222Z,24.1414
2023-04-04T07:15:39.339Z,23.9232
2023-04-04T07:16:40.516Z,23.6480
2023-04-04T07:17:41.577Z,23.5523
2023-04-04T07:18:42.679Z,23.6346
2023-04-04T07:19:43.721Z,23.6320
2023-04-04T07:20:44.802Z,23.6677
2023-04-04T07:21:45.923Z,23.5767
2023-04-04T07:22:46.996Z,23.8183
2023-04-04T07:23:48.136Z,23.9968
2023-04-04T07:24:49.198Z,23.9087
2023-04-04T07:25:50.299Z,23.9978
2023-04-04T07:26:51.381Z,24.0060
2023-04-04T07:27:57.314Z,23.9832
2023-04-04T07:28:54.605Z,23.8146
2023-04-04T07:29:54.685Z,23.7716
2023-04-04T07:30:55.787Z,23.7328
2023-04-04T07:31:56.941Z,23.4021
2023-04-04T07:32:58.020Z,23.4177
2023-04-04T07:33:59.109Z,23.4475
2023-04-04T07:35:00.176Z,23.4779
2023-04-04T07:36:01.358Z,23.6965
2023-04-04T07:37:02.365Z,23.7158
2023-04-04T07:38:03.462Z,23.6702
2023-04-04T07:39:04.599Z,23.4358
2023-04-04T07:40:05.668Z,23.3703
2023-04-04T07:41:06.741Z,23.3181
2023-04-04T07:42:07.864Z,23.4917
2023-04-04T07:43:08.957Z,23.5956
2023-04-04T07:44:10.056Z,23.6020
2023-04-04T07:45:11.160Z,23.7550
2023-04-04T07:46:12.320Z,23.9994
2023-04-04T07:47:13.320Z,24.0960
2023-04-04T07:48:14.441Z,24.2457
2023-04-04T07:49:15.559Z,24.2981
2023-04-04T07:50:16.640Z,24.3028
2023-04-04T07:51:17.721Z,24.3733
2023-04-04T07:52:18.834Z,24.4567
2023-04-04T07:53:19.918Z,24.5352
2023-04-04T07:54:21.055Z,24.4733
2023-04-04T07:55:22.105Z,24.4351
2023-04-04T07:56:23.205Z,24.4347
2023-04-04T07:57:24.286Z,24.4988
2023-04-04T07:58:25.398Z,24.2926
2023-04-04T07:59:26.624Z,24.1367
2023-04-04T08:00:27.584Z,23.9877
2023-04-04T08:01:28.677Z,23.6587
2023-04-04T08:02:29.892Z,23.3672
2023-04-04T08:03:31.276Z,23.3853
2023-04-04T08:04:32.089Z,23.5354
2023-04-04T08:05:33.073Z,23.4662
2023-04-04T08:06:34.198Z,23.4637
2023-04-04T08:07:35.291Z,23.4153
2023-04-04T08:08:36.369Z,23.3033
2023-04-04T08:09:37.475Z,23.3117
2023-04-04T08:10:38.836Z,23.4902
2023-04-04T08:11:39.683Z,23.5816
2023-04-04T08:12:40.786Z,23.6408
2023-04-04T08:13:41.840Z,23.6671
2023-04-04T08:14:42.967Z,23.5864
2023-04-04T08:15:44.098Z,23.6283
2023-04-04T08:16:45.151Z,23.6459
2023-04-04T08:17:46.259Z,23.7195
2023-04-04T08:18:47.365Z,23.8616
2023-04-04T08:19:48.484Z,24.0056
2023-04-04T08:20:49.545Z,24.2437
2023-04-04T08:21:50.636Z,24.0227
2023-04-04T08:22:51.731Z,24.1835
2023-04-04T08:23:52.839Z,24.2743
2023-04-04T08:24:53.945Z,24.2223
2023-04-04T08:25:55.017Z,24.2377
2023-04-04T08:27:04.677Z,24.0483
2023-04-04T08:27:58.272Z,23.9695
2023-04-04T08:28:58.315Z,23.9471
2023-04-04T08:29:59.425Z,23.9226
2023-04-04T08:31:00.526Z,23.9060
2023-04-04T08:32:01.567Z,23.8774
2023-04-04T08:33:05.512Z,23.4218
2023-04-04T08:34:03.760Z,23.3540
2023-04-04T08:35:04.895Z,23.1608
2023-04-04T08:36:05.978Z,22.0799
2023-04-04T08:37:07.055Z,19.5086
2023-04-04T08:38:08.140Z,18.8689
2023-04-04T08:39:09.255Z,20.0122
2023-04-04T08:40:10.370Z,20.8107
2023-04-04T08:41:11.460Z,21.3712
2023-04-04T08:42:12.533Z,22.0166
2023-04-04T08:43:13.640Z,22.4585
2023-04-04T08:44:14.719Z,22.4453
2023-04-04T08:45:15.867Z,22.4665
2023-04-04T08:46:16.922Z,22.9021
2023-04-04T08:47:18.019Z,23.1441
2023-04-04T08:48:19.107Z,22.9042
2023-04-04T08:49:20.225Z,22.6214
2023-04-04T08:50:21.307Z,22.5608
2023-04-04T08:51:22.381Z,22.8411
2023-04-04T08:52:23.478Z,23.0624
2023-04-04T08:53:24.588Z,23.1733
2023-04-04T08:54:25.663Z,23.0480
2023-04-04T08:55:26.788Z,22.6608
2023-04-04T08:56:27.858Z,22.6628
2023-04-04T08:57:28.962Z,22.8140
2023-04-04T08:58:30.048Z,22.8822
2023-04-04T08:59:31.189Z,22.7631
2023-04-04T09:00:32.257Z,22.8138
2023-04-04T09:01:33.430Z,22.6579
2023-04-04T09:02:34.625Z,22.3868
2023-04-04T09:03:35.555Z,22.6273
2023-04-04T09:04:36.628Z,22.7707
2023-04-04T09:05:37.750Z,22.9467
2023-04-04T09:06:38.821Z,23.1252
2023-04-04T09:07:40.022Z,23.1741
2023-04-04T09:08:41.028Z,23.2218
2023-04-04T09:09:42.114Z,23.2470
2023-04-04T09:10:43.232Z,23.4728
2023-04-04T09:11:44.312Z,23.4582
2023-04-04T09:12:45.440Z,23.6687
2023-04-04T09:13:46.529Z,23.4144
2023-04-04T09:14:47.624Z,23.2094
2023-04-04T09:15:48.753Z,23.3152
2023-04-04T09:16:49.876Z,23.1719
2023-04-04T09:17:50.971Z,23.2273
2023-04-04T09:18:52.083Z,23.3456
2023-04-04T09:19:53.182Z,23.4619
2023-04-04T09:20:59.435Z,23.6433
2023-04-04T09:21:55.390Z,23.5909
2023-04-04T09:22:56.487Z,23.5769
2023-04-04T09:23:57.604Z,23.3175
2023-04-04T09:24:58.694Z,22.7810
2023-04-04T09:26:04.333Z,22.8896
2023-04-04T09:27:01.915Z,23.1737
2023-04-04T09:28:02.030Z,23.0989
2023-04-04T09:29:03.124Z,23.1585
2023-04-04T09:30:05.837Z,23.2984
2023-04-04T09:31:05.368Z,23.4658
2023-04-04T09:32:06.468Z,23.6159
2023-04-04T09:33:07.587Z,23.7316
2023-04-04T09:34:08.663Z,23.9045
2023-04-04T09:35:09.821Z,23.9633
2023-04-04T09:36:10.929Z,23.6336
2023-04-04T09:37:11.969Z,23.5317
2023-04-04T09:38:13.097Z,23.7059
2023-04-04T09:39:14.199Z,23.8575
2023-04-04T09:40:15.342Z,23.8538
2023-04-04T09:41:16.464Z,23.9851
2023-04-04T09:42:17.689Z,23.9368
2023-04-04T09:43:18.619Z,23.6303
2023-04-04T09:44:19.765Z,23.3117
2023-04-04T09:45:31.642Z,23.2361
2023-04-04T09:46:22.990Z,23.5367
2023-04-04T09:47:30.355Z,23.8368
2023-04-04T09:48:25.169Z,23.6794
2023-04-04T09:49:25.291Z,23.6655
2023-04-04T09:50:26.386Z,23.5835
2023-04-04T09:51:27.893Z,23.5118
2023-04-04T09:52:28.586Z,23.5999
2023-04-04T09:53:29.782Z,23.4498
2023-04-04T09:54:31.517Z,23.6893
2023-04-04T09:55:31.998Z,23.9374
2023-04-04T09:56:33.278Z,23.8127
2023-04-04T09:57:34.207Z,23.4997
2023-04-04T09:58:35.297Z,23.6640
2023-04-04T09:59:36.437Z,23.9721
2023-04-04T10:00:37.932Z,24.2264
2023-04-04T10:01:38.679Z,24.0110
2023-04-04T10:02:39.758Z,23.9894
2023-04-04T10:03:40.883Z,23.9762
2023-04-04T10:04:41.948Z,23.7115
2023-04-04T10:05:43.076Z,24.0804
2023-04-04T10:06:44.190Z,24.3690
2023-04-04T10:07:45.306Z,24.4887
2023-04-04T10:08:46.420Z,24.4596
2023-04-04T10:09:47.506Z,24.1667
2023-04-04T10:10:58.729Z,24.1340
2023-04-04T10:11:50.757Z,24.1802
2023-04-04T10:12:50.829Z,24.2839
2023-04-04T10:13:51.969Z,23.9411
2023-04-04T10:14:53.068Z,23.7501
2023-04-04T10:15:54.243Z,23.7201
2023-04-04T10:16:55.278Z,23.9306
2023-04-04T10:17:56.442Z,24.1525
2023-04-04T10:18:57.516Z,24.2996
2023-04-04T10:19:58.614Z,24.4536
2023-04-04T10:21:08.180Z,24.6274
2023-04-04T10:22:01.890Z,24.6083
2023-04-04T10:23:01.922Z,24.4380
2023-04-04T10:24:03.069Z,24.2926
2023-04-04T10:25:04.148Z,23.8930
2023-04-04T10:26:05.289Z,23.6507
2023-04-04T10:27:06.378Z,23.7343
2023-04-04T10:28:07.480Z,23.5061
2023-04-04T10:29:08.577Z,23.7205
2023-04-04T10:30:09.688Z,23.9033
2023-04-04T10:31:10.895Z,23.8764
2023-04-04T10:32:11.990Z,23.5911
2023-04-04T10:33:12.981Z,23.6817
2023-04-04T10:34:14.108Z,24.0278
2023-04-04T10:35:15.195Z,23.8257
2023-04-04T10:36:16.372Z,23.5323
2023-04-04T10:37:17.455Z,23.4808
2023-04-04T10:38:18.534Z,23.6328
2023-04-04T10:39:19.629Z,23.9750
2023-04-04T10:40:20.752Z,24.2441
2023-04-04T10:41:21.827Z,24.3587
2023-04-04T10:42:22.968Z,24.5085
2023-04-04T10:43:24.023Z,24.5004
2023-04-04T10:44:25.141Z,24.0346
2023-04-04T10:45:26.201Z,24.1338
2023-04-04T10:46:27.375Z,24.1851
2023-04-04T10:47:28.430Z,24.2486
2023-04-04T10:48:29.520Z,24.2566
2023-04-04T10:49:30.609Z,24.2320
2023-04-04T10:50:31.714Z,23.8717
2023-04-04T10:51:37.120Z,23.6299
2023-04-04T10:52:35.408Z,23.4946
2023-04-04T10:53:35.012Z,23.2265
2023-04-04T10:54:36.101Z,22.9765
2023-04-04T10:55:37.685Z,22.1635
2023-04-04T10:56:38.284Z,21.6648
2023-04-04T10:57:39.425Z,20.7032
2023-04-04T10:58:40.482Z,20.0956
2023-04-04T10:59:41.569Z,20.4539
2023-04-04T11:00:42.712Z,21.1658
2023-04-04T11:01:43.775Z,21.8034
2023-04-04T11:02:45.055Z,22.3849
2023-04-04T11:03:46.003Z,22.8551
2023-04-04T11:04:47.077Z,23.0946
2023-04-04T11:05:48.167Z,22.7058
2023-04-04T11:06:49.263Z,22.6524
2023-04-04T11:08:04.399Z,22.6883
2023-04-04T11:08:52.469Z,22.1039
2023-04-04T11:09:52.564Z,21.3230
2023-04-04T11:10:53.689Z,20.8596
2023-04-04T11:11:55.326Z,20.2324
2023-04-04T11:13:09.316Z,20.7055
2023-04-04T11:13:57.957Z,20.7525
2023-04-04T11:14:58.124Z,20.7515
2023-04-04T11:15:59.129Z,21.2494
2023-04-04T11:17:00.288Z,21.0161
2023-04-04T11:18:04.299Z,20.1170
2023-04-04T11:19:03.460Z,19.7620
2023-04-04T11:20:03.537Z,20.7423
2023-04-04T11:21:04.651Z,21.7792
2023-04-04T11:22:05.744Z,22.1990
2023-04-04T11:23:06.911Z,22.7797
2023-04-04T11:24:07.934Z,23.0979
2023-04-04T11:25:09.042Z,23.5145
2023-04-04T11:26:10.132Z,23.8158
2023-04-04T11:27:11.912Z,24.0167
2023-04-04T11:28:12.362Z,23.4919
2023-04-04T11:29:13.441Z,23.2780
2023-04-04T11:30:14.530Z,23.6601
2023-04-04T11:31:15.684Z,23.8310
2023-04-04T11:32:16.816Z,23.5404
2023-04-04T11:33:17.869Z,23.3031
2023-04-04T11:34:18.936Z,23.2824
2023-04-04T11:35:20.039Z,23.0003
2023-04-04T11:36:21.165Z,22.7575
2023-04-04T11:37:22.248Z,23.2189
2023-04-04T11:38:23.380Z,23.3013
2023-04-04T11:39:24.433Z,23.6952
2023-04-04T11:40:25.526Z,24.0485
2023-04-04T11:41:26.633Z,24.2149
2023-04-04T11:42:27.721Z,24.2782
2023-04-04T11:43:28.854Z,23.9078
2023-04-04T11:44:30.033Z,23.7404
2023-04-04T11:45:31.038Z,23.8419
2023-04-04T11:46:32.187Z,24.0968
2023-04-04T11:47:33.272Z,23.7920
2023-04-04T11:48:34.335Z,23.5215
2023-04-04T11:49:35.451Z,23.8216
2023-04-04T11:50:36.508Z,23.5685
2023-04-04T11:51:37.626Z,23.3779
2023-04-04T11:52:38.724Z,23.5260
2023-04-04T11:53:39.848Z,23.7148
2023-04-04T11:54:40.907Z,24.0054
2023-04-04T11:55:42.081Z,24.1211
2023-04-04T11:56:43.120Z,24.2229
2023-04-04T11:57:44.243Z,24.1777
2023-04-04T11:58:45.325Z,23.9035
2023-04-04T11:59:46.430Z,23.2672
2023-04-04T12:00:48.410Z,22.4776
2023-04-04T12:01:48.604Z,22.1916
2023-04-04T12:02:49.751Z,22.1695
2023-04-04T12:03:51.093Z,22.0025
2023-04-04T12:04:53.151Z,22.3757
2023-04-04T12:05:53.074Z,22.4213
2023-04-04T12:06:54.113Z,22.5086
2023-04-04T12:07:55.222Z,22.3410
2023-04-04T12:08:56.307Z,22.9184
2023-04-04T12:09:57.493Z,23.3504
2023-04-04T12:10:58.485Z,23.6963
2023-04-04T12:11:59.597Z,23.9033
2023-04-04T12:13:00.685Z,23.9121
2023-04-04T12:14:01.814Z,24.0286
2023-04-04T12:15:14.585Z,24.2194
2023-04-04T12:16:05.038Z,24.2488
2023-04-04T12:17:05.062Z,24.3540
2023-04-04T12:18:06.233Z,24.2628
2023-04-04T12:19:07.278Z,23.7827